Airfield :
LOGIN :

Register | Disclaimer

   EN    FR    IT 

 










Legend :    VFR   Marginal VFR   IFR   Intensive IFR   Very Intensive IFR
Visi :
Ceiling :
>= 8 km
>= 3000ft
5 to 8 km
1000 to 3000 ft
1500m to 5 km
500 to 1000 ft
800 to 1500m
200 to 500 ft
< 800m
< 200 ft
Symbols :   Thunderstorms  Fog  Heavy snow  Heavy precipitations  Wind > 20 kt
SIGMETs :     Misc.  Thunderstorms  Icing  Turbulence  Mountain Waves  Volcanic Ashes






- Airport Elevation : 226 ft
- IATA code : BEX


EGUB - RAF Benson

CURRENT METAR :
  • 241520Z 22015KT 9999 -RADZ BKN010 OVC016 11/10 Q1003 TEMPO 7000 RADZ BKN015 RMK GRN TEMPO WHT

EXPIRED METARs :
  • 241450Z 22017KT 9999 -RADZ BKN010 OVC015 11/10 Q1004 TEMPO 5000 RADZ RMK GRN TEMPO GRN
  • 241420Z 22017KT 9999 BKN013 OVC020 11/10 Q1004 TEMPO 5000 -RADZ RMK GRN TEMPO GRN
  • 241350Z 21019KT 9999 -RADZ BKN012 OVC018 11/10 Q1004 TEMPO 4000 -RADZ RMK GRN TEMPO GRN
  • 241320Z 22017KT 9999 SCT013 BKN020 11/10 Q1005 TEMPO 4000 -RADZ RMK GRN TEMPO GRN
  • 241250Z 21017KT 9999 -RA SCT014 BKN020 OVC060 11/10 Q1005 TEMPO 7000 -DZ BKN015 RMK GRN TEMPO WHT

TAF TAF EGUB
Valid from the 24 at 15:00 until the 25 at 00:00 UTC


241338Z 2415/2424 22015G25KT 9999 BKN023
PROB40
TEMPO 2415/2417 23020G35KT
PROB30
TEMPO 2415/2416 3000 -DZ SCT014
BECMG 2416/2419 FEW023 SCT040
BECMG 2419/2421 25013KT
ATIS : +44 1491-837766 (x7524)



MET'MAP, your aeronautical weather chart ! - Copyright ORBIFLY December 2007 - Disclaimer

ORBIFLY MET'MAP TEAM :

Programming & Development : Alexandra Zaïnal
Concept & original design : Baudouin d'Aumeries
Assistance for programming : Marc-Olivier Méhu
Technical & hardware support : Manuel Goepfert

Contact : metmap@orbifly.com




SOURCES & CREDITS :

   NOAA